Time;durP1;ratioP1;P1;durP2;ratioP2;P2;SDS_P1;SDS_P2;PMS_P1;PMS_P2;Temp;Humidity;BMP_temperature;BMP_pressure;BME280_temperature;BME280_humidity;BME280_pressure;Samples;Min_cycle;Max_cycle;Signal;HPM_P1;HPM_P2
2023/04/02 00:01:32;;;;;;;4.70;4.20;;;;;;;-128.00;-1.00;-1.00;104005;1254;1014300;-50
2023/04/02 00:04:02;;;;;;;4.70;4.30;;;;;;;-128.00;-1.00;-1.00;102899;1259;1013172;-49
2023/04/02 00:06:38;;;;;;;6.30;4.40;;;;;;;-128.00;-1.00;-1.00;106539;1254;1012421;-51
2023/04/02 00:09:09;;;;;;;7.10;4.20;;;;;;;-128.00;-1.00;-1.00;106491;1254;1010023;-49
2023/04/02 00:11:41;;;;;;;4.10;3.70;;;;;;;-128.00;-1.00;-1.00;106515;1254;1010722;-51
2023/04/02 00:14:16;;;;;;;5.10;4.70;;;;;;;-128.00;-1.00;-1.00;106320;1254;1012725;-52
2023/04/02 00:16:44;;;;;;;4.80;4.40;;;;;;;-128.00;-1.00;-1.00;106494;1254;1012433;-51
2023/04/02 00:19:17;;;;;;;5.30;4.80;;;;;;;-128.00;-1.00;-1.00;106509;1254;1012550;-50
2023/04/02 00:21:46;;;;;;;5.70;4.50;;;;;;;-128.00;-1.00;-1.00;106475;1254;1010876;-52
2023/04/02 00:24:17;;;;;;;4.90;4.50;;;;;;;-128.00;-1.00;-1.00;106347;1254;1011526;-50
2023/04/02 00:26:46;;;;;;;4.90;4.50;;;;;;;-128.00;-1.00;-1.00;106557;1253;1012451;-50
2023/04/02 00:29:14;;;;;;;4.10;3.80;;;;;;;-128.00;-1.00;-1.00;103184;1259;1012603;-52
2023/04/02 00:31:44;;;;;;;4.10;3.80;;;;;;;-128.00;-1.00;-1.00;103892;1258;1013050;-49
2023/04/02 00:34:30;;;;;;;5.40;4.40;;;;;;;-128.00;-1.00;-1.00;104358;1254;1010681;-46
2023/04/02 00:36:58;;;;;;;5.00;4.40;;;;;;;-128.00;-1.00;-1.00;102729;1259;1011619;-49
2023/04/02 00:41:02;;;;;;;5.80;4.30;;;;;;;;;;102519;1289;601428;-50
2023/04/02 00:43:30;;;;;;;6.20;4.30;;;;;;;;;;107925;1266;59133;-49
2023/04/02 00:46:02;;;;;;;5.10;4.70;;;;;;;;;;106401;1264;59363;-52
2023/04/02 00:48:30;;;;;;;7.10;5.10;;;;;;;;;;105197;1269;60352;-51
2023/04/02 00:50:59;;;;;;;4.50;3.90;;;;;;;;;;104760;1263;58953;-51
2023/04/02 00:53:27;;;;;;;5.50;5.00;;;;;;;;;;104588;1263;59964;-48
2023/04/02 00:55:57;;;;;;;5.50;4.10;;;;;;;;;;104864;1266;59004;-52
2023/04/02 00:58:26;;;;;;;4.30;3.90;;;;;;;;;;105207;1264;59195;-52
2023/04/02 01:00:57;;;;;;;5.80;5.20;;;;;;;;;;105187;1263;60544;-48
2023/04/02 01:03:28;;;;;;;5.20;4.20;;;;;;;;;;105142;1266;59065;-51
2023/04/02 01:06:01;;;;;;;5.20;4.70;;;;;;;;;;105171;1266;60546;-49
2023/04/02 01:08:37;;;;;;;5.30;4.80;;;;;;;;;;105624;1260;60059;-49
2023/04/02 01:11:27;;;;;;;8.00;5.10;;;;;;;;;;105915;1261;59647;-47
2023/04/02 01:14:05;;;;;;;7.90;5.30;;;;;;;;;;105105;1265;61131;-49
2023/04/02 01:16:36;;;;;;;6.30;5.30;;;;;;;;;;105558;1260;59629;-50
2023/04/02 01:19:13;;;;;;;9.20;4.10;;;;;;;;;;105068;1266;61687;-50
2023/04/02 01:21:44;;;;;;;7.60;5.20;;;;;;;;;;105037;1273;59614;-50
2023/04/02 01:24:14;;;;;;;7.90;4.70;;;;;;;;;;104986;1266;59627;-49
2023/04/02 01:26:47;;;;;;;7.80;4.50;;;;;;;;;;105485;1259;61338;-50
2023/04/02 01:29:19;;;;;;;5.70;4.70;;;;;;;;;;104997;1266;59689;-50
2023/04/02 01:31:47;;;;;;;6.00;4.60;;;;;;;;;;105145;1266;60603;-49
2023/04/02 01:34:16;;;;;;;7.50;5.10;;;;;;;;;;105148;1273;59625;-48
2023/04/02 01:36:48;;;;;;;4.00;3.60;;;;;;;;;;105437;1264;59625;-52
2023/04/02 01:39:35;;;;;;;7.40;3.80;;;;;;;;;;105313;1261;61510;-50
2023/04/02 01:42:20;;;;;;;5.40;4.70;;;;;;;;;;105037;1264;59848;-49
2023/04/02 01:44:49;;;;;;;5.10;4.60;;;;;;;;;;105337;1266;59794;-48
2023/04/02 01:47:19;;;;;;;5.20;4.60;;;;;;;;;;105175;1263;59727;-51
2023/04/02 01:49:47;;;;;;;6.70;4.80;;;;;;;;;;105337;1266;59644;-51
2023/04/02 01:52:16;;;;;;;4.30;3.90;;;;;;;;;;105509;1260;61147;-52
2023/04/02 01:54:46;;;;;;;6.90;4.40;;;;;;;;;;105395;1266;59649;-50
2023/04/02 01:57:14;;;;;;;10.70;4.70;;;;;;;;;;105434;1267;60680;-48
2023/04/02 01:59:42;;;;;;;6.10;5.10;;;;;;;;;;105218;1273;59772;-52
2023/04/02 02:02:11;;;;;;;5.20;4.70;;;;;;;;;;104901;1266;59730;-51
2023/04/02 02:04:40;;;;;;;6.90;5.10;;;;;;;;;;106515;1261;62854;-51
2023/04/02 02:07:13;;;;;;;4.50;4.10;;;;;;;;;;106342;1266;59698;-46
2023/04/02 02:09:42;;;;;;;7.00;4.90;;;;;;;;;;105182;1264;60990;-49
2023/04/02 02:12:14;;;;;;;4.80;4.30;;;;;;;;;;105090;1266;59630;-51
2023/04/02 02:14:46;;;;;;;6.60;4.90;;;;;;;;;;105097;1264;59643;-50
2023/04/02 02:17:15;;;;;;;4.60;3.90;;;;;;;;;;104962;1266;60240;-50
2023/04/02 02:19:46;;;;;;;5.60;5.00;;;;;;;;;;105059;1273;59596;-47
2023/04/02 02:22:28;;;;;;;5.40;4.90;;;;;;;;;;105061;1267;60625;-52
2023/04/02 02:24:57;;;;;;;4.80;4.30;;;;;;;;;;105027;1266;59701;-51
2023/04/02 02:27:25;;;;;;;7.10;5.00;;;;;;;;;;105324;1266;59584;-51
2023/04/02 02:30:00;;;;;;;5.00;4.40;;;;;;;;;;105405;1261;61206;-49
2023/04/02 02:32:30;;;;;;;5.80;5.30;;;;;;;;;;105396;1267;59694;-52
2023/04/02 02:35:01;;;;;;;5.40;5.00;;;;;;;;;;105886;1261;60460;-52
2023/04/02 02:37:31;;;;;;;6.00;5.50;;;;;;;;;;105473;1260;59746;-51
2023/04/02 02:40:00;;;;;;;5.60;5.10;;;;;;;;;;104987;1266;59695;-48
2023/04/02 02:42:35;;;;;;;5.40;5.00;;;;;;;;;;104997;1267;61384;-50
2023/04/02 02:45:05;;;;;;;7.80;5.50;;;;;;;;;;104842;1267;59590;-48
2023/04/02 02:47:33;;;;;;;7.90;6.00;;;;;;;;;;104961;1261;60635;-53
2023/04/02 02:50:04;;;;;;;7.60;5.60;;;;;;;;;;108617;1260;57774;-53
2023/04/02 02:52:36;;;;;;;5.70;4.90;;;;;;;;;;108667;1260;57467;-50
2023/04/02 02:55:14;;;;;;;7.40;5.00;;;;;;;;;;107095;1257;61206;-49
2023/04/02 02:58:11;;;;;;;6.60;6.00;;;;;;;;;;109176;1253;57450;-51
2023/04/02 03:00:45;;;;;;;6.20;5.70;;;;;;;;;;109132;1253;60906;-53
2023/04/02 03:03:21;;;;;;;6.10;5.10;;;;;;;;;;109151;1255;57647;-53
2023/04/02 03:06:01;;;;;;;5.20;4.70;;;;;;;;;;109050;1254;57763;-53
2023/04/02 03:08:43;;;;;;;5.60;5.00;;;;;;;;;;109161;1254;61035;-50
2023/04/02 03:11:23;;;;;;;5.50;4.90;;;;;;;;;;109088;1253;57339;-52
2023/04/02 03:13:51;;;;;;;6.00;4.50;;;;;;;;;;109169;1253;59555;-51
2023/04/02 03:16:22;;;;;;;6.10;5.40;;;;;;;;;;109352;1254;57326;-51
2023/04/02 03:18:53;;;;;;;5.10;4.70;;;;;;;;;;109175;1254;57656;-50
2023/04/02 03:21:21;;;;;;;4.40;4.10;;;;;;;;;;109290;1254;61437;-48
2023/04/02 03:23:52;;;;;;;5.30;4.80;;;;;;;;;;109240;1254;57646;-48
2023/04/02 03:26:26;;;;;;;5.90;5.40;;;;;;;;;;109132;1254;59829;-48
2023/04/02 03:28:55;;;;;;;;;;;;;;;;;;109200;1254;57351;-49
2023/04/02 03:31:25;;;;;;;5.10;4.60;;;;;;;;;;107469;1255;59661;-48
2023/04/02 03:33:55;;;;;;;4.20;3.80;;;;;;;;;;105585;1258;60079;-50
2023/04/02 03:36:32;;;;;;;5.40;5.00;;;;;;;;;;105826;1257;59701;-47
2023/04/02 03:39:00;;;;;;;6.30;4.60;;;;;;;;;;106836;1256;60585;-50
2023/04/02 03:41:30;;;;;;;4.50;4.10;;;;;;;;;;105420;1253;59734;-50
2023/04/02 03:43:59;;;;;;;5.40;4.60;;;;;;;;;;105679;1260;59644;-47
2023/04/02 03:46:48;;;;;;;5.50;4.70;;;;;;;;;;105753;1254;61331;-50
2023/04/02 03:49:16;;;;;;;5.20;4.60;;;;;;;;;;105901;1254;59759;-49
2023/04/02 03:51:56;;;;;;;4.40;4.10;;;;;;;;;;105667;1257;59763;-50
2023/04/02 03:54:24;;;;;;;4.80;4.30;;;;;;;;;;105665;1253;59740;-49
2023/04/02 03:56:53;;;;;;;5.50;4.30;;;;;;;;;;105798;1252;59684;-49
2023/04/02 03:59:26;;;;;;;5.90;4.20;;;;;;;;;;106143;1253;61079;-50
2023/04/02 04:01:55;;;;;;;5.20;4.80;;;;;;;;;;106761;1254;59318;-51
2023/04/02 04:04:25;;;;;;;6.10;4.10;;;;;;;;;;105552;1260;60847;-52
2023/04/02 04:06:52;;;;;;;6.90;4.90;;;;;;;;;;106280;1252;60275;-53
2023/04/02 04:09:26;;;;;;;5.10;4.40;;;;;;;;;;105884;1257;59065;-49
2023/04/02 04:11:59;;;;;;;5.10;4.40;;;;;;;;;;106110;1254;61081;-50
2023/04/02 04:14:30;;;;;;;5.10;4.00;;;;;;;;;;105571;1257;59721;-49
2023/04/02 04:17:03;;;;;;;7.30;4.70;;;;;;;;;;106732;1254;60977;-50
2023/04/02 04:19:44;;;;;;;5.90;5.30;;;;;;;;;;105858;1257;59798;-49
2023/04/02 04:22:16;;;;;;;6.20;4.20;;;;;;;;;;105992;1257;59688;-49
2023/04/02 04:24:45;;;;;;;5.30;4.20;;;;;;;;;;105458;1263;62162;-52
2023/04/02 04:27:17;;;;;;;6.20;5.50;;;;;;;;;;105680;1256;59541;-48
2023/04/02 04:29:56;;;;;;;5.70;5.20;;;;;;;;;;105794;1261;60882;-50
2023/04/02 04:32:30;;;;;;;5.70;5.20;;;;;;;;;;105612;1257;59773;-46
2023/04/02 04:35:21;;;;;;;5.00;4.60;;;;;;;;;;105637;1257;59977;-47
2023/04/02 04:37:52;;;;;;;9.20;6.40;;;;;;;;;;106303;1251;61379;-51
2023/04/02 04:40:25;;;;;;;7.30;6.60;;;;;;;;;;106012;1257;59605;-47
2023/04/02 04:42:57;;;;;;;7.70;7.00;;;;;;;;;;105578;1254;60964;-51
2023/04/02 04:45:27;;;;;;;7.60;6.40;;;;;;;;;;105808;1257;58940;-50
2023/04/02 04:48:15;;;;;;;7.50;6.70;;;;;;;;;;106033;1254;59545;-51
2023/04/02 04:50:51;;;;;;;8.30;7.50;;;;;;;;;;105979;1254;60603;-49
2023/04/02 04:53:21;;;;;;;6.50;6.10;;;;;;;;;;106235;1257;60060;-51
2023/04/02 04:55:58;;;;;;;6.40;5.30;;;;;;;;;;105774;1258;61011;-50
2023/04/02 04:59:06;;;;;;;5.70;5.30;;;;;;;;;;105445;1254;60361;-50
2023/04/02 05:01:44;;;;;;;5.30;4.60;;;;;;;;;;105499;1253;60431;-51
2023/04/02 05:04:20;;;;;;;5.00;4.60;;;;;;;;;;106304;1257;62251;-53
2023/04/02 05:06:55;;;;;;;5.00;4.40;;;;;;;;;;105577;1253;60483;-50
2023/04/02 05:09:32;;;;;;;7.30;4.80;;;;;;;;;;105786;1257;61033;-49
2023/04/02 05:12:05;;;;;;;6.90;5.40;;;;;;;;;;106811;1256;60309;-53
2023/04/02 05:14:42;;;;;;;3.80;3.50;;;;;;;;;;105358;1254;60443;-51
2023/04/02 05:17:22;;;;;;;4.40;4.00;;;;;;;;;;105709;1256;61996;-52
2023/04/02 05:20:15;;;;;;;5.00;4.60;;;;;;;;;;105701;1256;60364;-50
2023/04/02 05:22:44;;;;;;;5.80;4.60;;;;;;;;;;106310;1254;60935;-51
2023/04/02 05:25:26;;;;;;;5.80;4.80;;;;;;;;;;105609;1257;60449;-50
2023/04/02 05:27:57;;;;;;;4.20;4.00;;;;;;;;;;105910;1256;60636;-50
2023/04/02 05:30:25;;;;;;;5.90;5.30;;;;;;;;;;105454;1254;60980;-51
2023/04/02 05:33:06;;;;;;;6.00;5.40;;;;;;;;;;105512;1257;60339;-49
2023/04/02 05:35:36;;;;;;;5.70;5.10;;;;;;;;;;105440;1254;60477;-50
2023/04/02 05:38:05;;;;;;;4.90;4.50;;;;;;;;;;105951;1252;60470;-49
2023/04/02 05:40:35;;;;;;;4.70;4.40;;;;;;;;;;105533;1257;60430;-49
2023/04/02 05:43:03;;;;;;;5.10;4.70;;;;;;;;;;105785;1254;62129;-49
2023/04/02 05:45:36;;;;;;;5.00;4.70;;;;;;;;;;107574;1253;59246;-51
2023/04/02 05:48:25;;;;;;;5.30;4.90;;;;;;;;;;106173;1254;60879;-50
2023/04/02 05:50:54;;;;;;;6.60;4.60;;;;;;;;;;105174;1260;60508;-50
2023/04/02 05:53:33;;;;;;;5.40;4.90;;;;;;;;;;105198;1254;60396;-51
2023/04/02 05:56:04;;;;;;;5.10;4.70;;;;;;;;;;109197;1253;61303;-51
2023/04/02 05:58:37;;;;;;;4.90;4.50;;;;;;;;;;109080;1254;58379;-51
2023/04/02 06:01:33;;;;;;;5.20;4.80;;;;;;;;;;108911;1254;60056;-52
2023/04/02 06:04:16;;;;;;;4.80;4.40;;;;;;;;;;109043;1253;58537;-51
2023/04/02 06:06:48;;;;;;;4.50;4.10;;;;;;;;;;109104;1253;58071;-51
2023/04/02 06:09:23;;;;;;;5.30;4.20;;;;;;;;;;109023;1253;60876;-51
2023/04/02 06:11:55;;;;;;;5.70;3.60;;;;;;;;;;109145;1254;58693;-51
2023/04/02 06:14:24;;;;;;;4.20;3.90;;;;;;;;;;106404;1256;60502;-48
2023/04/02 06:16:52;;;;;;;4.00;3.80;;;;;;;;;;109180;1253;59288;-52
2023/04/02 06:19:28;;;;;;;3.30;3.00;;;;;;;;;;109104;1254;58181;-53
2023/04/02 06:21:59;;;;;;;3.80;3.50;;;;;;;;;;109140;1253;62175;-52
2023/04/02 06:24:27;;;;;;;4.00;2.80;;;;;;;;;;109111;1254;58174;-52
2023/04/02 06:26:56;;;;;;;3.50;3.30;;;;;;;;;;109135;1253;60642;-52
2023/04/02 06:29:38;;;;;;;4.00;3.80;;;;;;;;;;108953;1253;58676;-51
2023/04/02 06:32:12;;;;;;;5.80;3.30;;;;;;;;;;109053;1254;58200;-49
2023/04/02 06:34:43;;;;;;;3.10;2.80;;;;;;;;;;106758;1254;60950;-46
2023/04/02 06:37:34;;;;;;;3.20;3.00;;;;;;;;;;108873;1253;59077;-49
2023/04/02 06:40:35;;;;;;;3.50;3.20;;;;;;;;;;105414;1254;60774;-51
2023/04/02 06:43:41;;;;;;;4.10;3.60;;;;;;;;;;105639;1253;60533;-51
2023/04/02 06:46:34;;;;;;;3.70;3.30;;;;;;;;;;105247;1254;60540;-50
2023/04/02 06:49:26;;;;;;;2.90;2.70;;;;;;;;;;105880;1253;61919;-48
2023/04/02 06:51:57;;;;;;;4.30;3.60;;;;;;;;;;105296;1257;60623;-49
2023/04/02 06:54:26;;;;;;;3.30;3.10;;;;;;;;;;106508;1254;60552;-51
2023/04/02 06:56:58;;;;;;;3.60;3.30;;;;;;;;;;105836;1257;60918;-50
2023/04/02 06:59:36;;;;;;;3.30;3.10;;;;;;;;;;106259;1253;60358;-48
2023/04/02 07:02:16;;;;;;;4.30;4.00;;;;;;;;;;107494;1256;62158;-51
2023/04/02 07:04:44;;;;;;;3.60;3.40;;;;;;;;;;105528;1257;60409;-48
2023/04/02 07:07:13;;;;;;;3.90;3.60;;;;;;;;;;105708;1253;60553;-51
2023/04/02 07:09:43;;;;;;;5.10;4.70;;;;;;;;;;105984;1257;60427;-50
2023/04/02 07:12:12;;;;;;;4.20;3.80;;;;;;;;;;105466;1254;60547;-50
2023/04/02 07:14:40;;;;;;;4.40;4.10;;;;;;;;;;106502;1254;61068;-51
2023/04/02 07:17:13;;;;;;;4.20;3.90;;;;;;;;;;105793;1257;60434;-50
2023/04/02 07:19:43;;;;;;;4.00;3.70;;;;;;;;;;105562;1253;60905;-51
2023/04/02 07:22:11;;;;;;;4.20;3.80;;;;;;;;;;105764;1257;60533;-46
2023/04/02 07:24:41;;;;;;;4.80;4.40;;;;;;;;;;106061;1253;60498;-49
2023/04/02 07:27:12;;;;;;;4.50;3.60;;;;;;;;;;105710;1253;62249;-50
2023/04/02 07:29:43;;;;;;;4.40;4.20;;;;;;;;;;105724;1256;60427;-53
2023/04/02 07:32:11;;;;;;;4.00;3.70;;;;;;;;;;105666;1254;60444;-50
2023/04/02 07:34:40;;;;;;;4.60;3.70;;;;;;;;;;105812;1257;60663;-50
2023/04/02 07:37:13;;;;;;;4.50;4.20;;;;;;;;;;105509;1257;60437;-50
2023/04/02 07:39:41;;;;;;;3.40;3.20;;;;;;;;;;106000;1252;62271;-49
2023/04/02 07:42:09;;;;;;;3.50;3.10;;;;;;;;;;106151;1253;61127;-49
2023/04/02 07:44:37;;;;;;;4.50;4.10;;;;;;;;;;105908;1253;60710;-50
2023/04/02 07:47:05;;;;;;;3.40;3.20;;;;;;;;;;105720;1256;60417;-52
2023/04/02 07:49:35;;;;;;;4.90;4.10;;;;;;;;;;105673;1253;60520;-50
2023/04/02 07:52:03;;;;;;;3.20;3.00;;;;;;;;;;106050;1254;61980;-47
2023/04/02 07:54:31;;;;;;;3.60;3.30;;;;;;;;;;106860;1256;60437;-49
2023/04/02 07:56:59;;;;;;;4.20;3.10;;;;;;;;;;105140;1257;60666;-46
2023/04/02 07:59:27;;;;;;;3.80;3.40;;;;;;;;;;106205;1253;60405;-49
2023/04/02 08:01:56;;;;;;;3.70;3.40;;;;;;;;;;105652;1254;60511;-52
2023/04/02 08:04:25;;;;;;;3.80;3.50;;;;;;;;;;105621;1257;61971;-52
2023/04/02 08:06:54;;;;;;;3.30;3.10;;;;;;;;;;105938;1256;60434;-50
2023/04/02 08:09:23;;;;;;;3.40;2.40;;;;;;;;;;105871;1254;60972;-48
2023/04/02 08:11:53;;;;;;;3.40;3.20;;;;;;;;;;105617;1253;60412;-50
2023/04/02 08:14:21;;;;;;;3.80;3.40;;;;;;;;;;105571;1257;60457;-50
2023/04/02 08:16:50;;;;;;;3.40;3.10;;;;;;;;;;105631;1254;62182;-53
2023/04/02 08:19:20;;;;;;;2.70;2.50;;;;;;;;;;106041;1253;60382;-49
2023/04/02 08:21:50;;;;;;;2.30;2.20;;;;;;;;;;106616;1256;26492;-50
2023/04/02 08:24:18;;;;;;;3.20;2.30;;;;;;;;;;107194;1253;25324;-48
2023/04/02 08:26:47;;;;;;;2.60;2.40;;;;;;;;;;106871;1253;25223;-50
2023/04/02 08:29:15;;;;;;;2.50;2.20;;;;;;;;;;106690;1256;25259;-50
2023/04/02 08:31:44;;;;;;;2.40;2.20;;;;;;;;;;106689;1254;24226;-49
2023/04/02 08:34:12;;;;;;;2.90;2.70;;;;;;;;;;107112;1256;25265;-50
2023/04/02 08:36:40;;;;;;;1.80;1.70;;;;;;;;;;106697;1256;25384;-52
2023/04/02 08:39:11;;;;;;;2.20;1.80;;;;;;;;;;106679;1256;23008;-52
2023/04/02 08:41:44;;;;;;;2.00;1.90;;;;;;;;;;107550;1253;23266;-49
2023/04/02 08:44:21;;;;;;;5.20;2.50;;;;;;;;;;106616;1253;22953;-50
2023/04/02 08:46:58;;;;;;;3.60;3.40;;;;;;;;;;106839;1253;25326;-49
2023/04/02 08:49:45;;;;;;;4.00;3.70;;;;;;;;;;106749;1256;22537;-49
2023/04/02 08:52:20;;;;;;;4.10;3.50;;;;;;;;;;107956;1254;22797;-50
2023/04/02 08:54:48;;;;;;;2.50;2.30;;;;;;;;;;106639;1256;23033;-51
2023/04/02 08:57:16;;;;;;;2.20;2.10;;;;;;;;;;110290;1252;22500;-51
2023/04/02 08:59:45;;;;;;;2.50;2.30;;;;;;;;;;110343;1253;22465;-51
2023/04/02 09:02:17;;;;;;;2.90;2.10;;;;;;;;;;107929;1254;22518;-47
2023/04/02 09:04:46;;;;;;;2.40;2.20;;;;;;;;;;106796;1256;25215;-47
2023/04/02 09:07:15;;;;;;;2.40;2.30;;;;;;;;;;110357;1253;22408;-49
2023/04/02 09:09:45;;;;;;;2.10;2.00;;;;;;;;;;110287;1252;23262;-50
2023/04/02 09:12:16;;;;;;;3.10;2.30;;;;;;;;;;110384;1252;23064;-51
2023/04/02 09:14:48;;;;;;;2.30;2.10;;;;;;;;;;110211;1251;23581;-52
2023/04/02 09:17:16;;;;;;;2.30;2.00;;;;;;;;;;110357;1253;22483;-50
2023/04/02 09:20:07;;;;;;;2.80;2.60;;;;;;;;;;110411;1252;22449;-51
2023/04/02 09:22:35;;;;;;;2.70;2.50;;;;;;;;;;110414;1253;22468;-50
2023/04/02 09:25:03;;;;;;;2.90;2.70;;;;;;;;;;110349;1253;22272;-51
2023/04/02 09:27:35;;;;;;;3.60;3.30;;;;;;;;;;110338;1253;22488;-51
2023/04/02 09:30:20;;;;;;;3.20;3.00;;;;;;;;;;110331;1253;22472;-51
2023/04/02 09:32:48;;;;;;;3.80;3.50;;;;;;;;;;110279;1252;22424;-50
2023/04/02 09:35:18;;;;;;;3.00;2.80;;;;;;;;;;110395;1252;22378;-51
2023/04/02 09:38:06;;;;;;;2.40;2.20;;;;;;;;;;110383;1253;22470;-50
2023/04/02 09:40:41;;;;;;;4.20;3.00;;;;;;;;;;110451;1253;22462;-50
2023/04/02 09:43:10;;;;;;;1.90;1.80;;;;;;;;;;110271;1252;22399;-51
2023/04/02 09:45:40;;;;;;;2.90;2.70;;;;;;;;;;109775;1253;22605;-53
2023/04/02 09:48:34;;;;;;;2.70;2.50;;;;;;;;;;107933;1252;24244;-48
2023/04/02 09:51:04;;;;;;;3.20;3.00;;;;;;;;;;107340;1253;25374;-50
2023/04/02 09:53:33;;;;;;;3.40;3.20;;;;;;;;;;106852;1252;23008;-49
2023/04/02 09:56:09;;;;;;;2.80;2.70;;;;;;;;;;106740;1254;24452;-48
2023/04/02 09:58:37;;;;;;;3.60;3.40;;;;;;;;;;106792;1256;25499;-50
2023/04/02 10:01:37;;;;;;;5.00;3.80;;;;;;;;;;106716;1253;23012;-51
2023/04/02 10:04:26;;;;;;;3.10;2.80;;;;;;;;;;107631;1256;26474;-52
2023/04/02 10:06:56;;;;;;;3.50;3.30;;;;;;;;;;106969;1256;25405;-51
2023/04/02 10:09:28;;;;;;;4.60;4.20;;;;;;;;;;109084;1253;22582;-51
2023/04/02 10:11:56;;;;;;;3.40;3.20;;;;;;;;;;107341;1251;24295;-50
2023/04/02 10:14:27;;;;;;;3.20;3.10;;;;;;;;;;106317;1252;22532;-52
2023/04/02 10:17:15;;;;;;;3.50;3.30;;;;;;;;;;107218;1253;25326;-47
2023/04/02 10:19:47;;;;;;;4.30;3.80;;;;;;;;;;107897;1253;22770;-48
2023/04/02 10:22:16;;;;;;;3.30;3.10;;;;;;;;;;106564;1256;25302;-47
2023/04/02 10:24:44;;;;;;;4.70;4.30;;;;;;;;;;106676;1254;25288;-49
2023/04/02 10:27:15;;;;;;;3.70;3.50;;;;;;;;;;106727;1256;25197;-50
2023/04/02 10:30:03;;;;;;;4.00;3.70;;;;;;;;;;106888;1256;23420;-51
2023/04/02 10:32:36;;;;;;;4.40;4.00;;;;;;;;;;107084;1256;25396;-49
2023/04/02 10:35:10;;;;;;;5.40;5.00;;;;;;;;;;106716;1257;22867;-50
2023/04/02 10:37:38;;;;;;;4.30;4.00;;;;;;;;;;107677;1256;25325;-50
2023/04/02 10:40:20;;;;;;;9.80;5.10;;;;;;;;;;106799;1256;23026;-48
2023/04/02 10:42:52;;;;;;;6.10;5.50;;;;;;;;;;106868;1255;22984;-48
2023/04/02 10:45:30;;;;;;;7.10;6.50;;;;;;;;;;107046;1254;24289;-48
2023/04/02 10:47:59;;;;;;;6.60;5.60;;;;;;;;;;107054;1256;22867;-51
2023/04/02 10:50:46;;;;;;;6.90;6.30;;;;;;;;;;106959;1254;25339;-46
2023/04/02 10:53:15;;;;;;;7.10;6.40;;;;;;;;;;106822;1254;24353;-51
2023/04/02 10:55:44;;;;;;;10.50;7.80;;;;;;;;;;106968;1253;22767;-52
2023/04/02 10:58:18;;;;;;;7.50;7.00;;;;;;;;;;106751;1256;23341;-47
2023/04/02 11:01:07;;;;;;;7.60;7.10;;;;;;;;;;107004;1257;24289;-51
2023/04/02 11:03:38;;;;;;;6.90;6.30;;;;;;;;;;106623;1256;22544;-50
2023/04/02 11:06:23;;;;;;;7.80;7.10;;;;;;;;;;106930;1256;22999;-52
2023/04/02 11:08:53;;;;;;;6.40;5.90;;;;;;;;;;106611;1257;25274;-51
2023/04/02 11:11:21;;;;;;;6.60;6.10;;;;;;;;;;106796;1254;24382;-52
2023/04/02 11:13:51;;;;;;;6.80;6.30;;;;;;;;;;107399;1256;22520;-49
2023/04/02 11:16:19;;;;;;;7.90;7.20;;;;;;;;;;107349;1255;25211;-48
2023/04/02 11:19:06;;;;;;;7.20;6.70;;;;;;;;;;106814;1253;25262;-49
2023/04/02 11:21:42;;;;;;;7.60;7.20;;;;;;;;;;106715;1256;25220;-50
2023/04/02 11:24:28;;;;;;;9.00;8.40;;;;;;;;;;108685;1256;25331;-51
2023/04/02 11:27:10;;;;;;;8.40;7.50;;;;;;;;;;107536;1254;25532;-49
2023/04/02 11:29:37;;;;;;;8.40;7.70;;;;;;;;;;106708;1256;25274;-51
2023/04/02 11:32:11;;;;;;;8.10;7.40;;;;;;;;;;106800;1253;24270;-52
2023/04/02 11:34:39;;;;;;;8.40;7.80;;;;;;;;;;106698;1256;23419;-51
2023/04/02 11:37:08;;;;;;;8.00;7.40;;;;;;;;;;106837;1254;25349;-52
2023/04/02 11:39:55;;;;;;;8.50;7.90;;;;;;;;;;106729;1254;22764;-50
2023/04/02 11:42:28;;;;;;;9.10;8.30;;;;;;;;;;107470;1254;22661;-50
2023/04/02 11:45:15;;;;;;;9.10;6.10;;;;;;;;;;106572;1251;22901;-50
2023/04/02 11:47:43;;;;;;;8.30;7.60;;;;;;;;;;106542;1256;23036;-49
2023/04/02 11:50:26;;;;;;;8.00;7.30;;;;;;;;;;106506;1254;22545;-51
2023/04/02 11:52:54;;;;;;;8.00;7.30;;;;;;;;;;106623;1254;26493;-51
2023/04/02 11:55:28;;;;;;;7.40;6.90;;;;;;;;;;106623;1254;22523;-52
2023/04/02 11:58:22;;;;;;;8.70;8.00;;;;;;;;;;110137;1252;22453;-49
2023/04/02 12:01:06;;;;;;;8.40;7.80;;;;;;;;;;110222;1252;22457;-52
2023/04/02 12:04:07;;;;;;;7.60;7.10;;;;;;;;;;110075;1252;23785;-51
2023/04/02 12:06:59;;;;;;;7.30;5.80;;;;;;;;;;109929;1253;22492;-49
2023/04/02 12:09:27;;;;;;;9.20;8.10;;;;;;;;;;110119;1253;23239;-50
2023/04/02 12:11:56;;;;;;;8.00;7.20;;;;;;;;;;109972;1254;23269;-49
2023/04/02 12:14:36;;;;;;;7.70;7.10;;;;;;;;;;110149;1253;22443;-48
2023/04/02 12:17:12;;;;;;;14.10;12.90;;;;;;;;;;109462;1254;24205;-48
2023/04/02 12:19:44;;;;;;;22.80;20.80;;;;;;;;;;110098;1252;22501;-53
2023/04/02 12:22:20;;;;;;;39.70;36.30;;;;;;;;;;110209;1253;23203;-51
2023/04/02 12:24:48;;;;;;;19.10;17.50;;;;;;;;;;110227;1252;23276;-53
2023/04/02 12:27:21;;;;;;;11.10;10.40;;;;;;;;;;110201;1251;23275;-53
2023/04/02 12:29:50;;;;;;;7.80;7.00;;;;;;;;;;110186;1254;22887;-51
2023/04/02 12:32:19;;;;;;;9.00;8.20;;;;;;;;;;110235;1255;23079;-50
2023/04/02 12:34:46;;;;;;;3.00;2.70;;;;;;;;;;110166;1254;22505;-51
2023/04/02 12:37:18;;;;;;;2.20;2.10;;;;;;;;;;110227;1251;23879;-53
2023/04/02 12:39:53;;;;;;;3.10;2.90;;;;;;;;;;110154;1252;22564;-51
2023/04/02 12:42:25;;;;;;;3.30;2.90;;;;;;;;;;106911;1253;23510;-49
2023/04/02 12:44:53;;;;;;;1.80;1.40;;;;;;;;;;110312;1253;22474;-52
2023/04/02 12:47:26;;;;;;;1.10;1.00;;;;;;;;;;106659;1253;24216;-52
2023/04/02 12:49:55;;;;;;;1.60;1.30;;;;;;;;;;108246;1256;26960;-50
2023/04/02 12:52:27;;;;;;;1.60;0.90;;;;;;;;;;106620;1254;22598;-49
2023/04/02 12:58:02;;;;;;;0.60;0.60;;;;;;;-128.00;-1.00;-1.00;100254;1292;1002550;-52
2023/04/02 13:00:32;;;;;;;0.80;0.50;;;;;;;-128.00;-1.00;-1.00;105436;1266;1010691;-49
2023/04/02 13:03:17;;;;;;;2.20;0.60;;;;;;;-128.00;-1.00;-1.00;102415;1266;1010373;-52
2023/04/02 13:05:50;;;;;;;;;;;;;;;-128.00;-1.00;-1.00;101367;1266;1012044;-52
2023/04/02 13:08:24;;;;;;;1.10;0.70;;;;;;;-128.00;-1.00;-1.00;103025;1270;1011897;-51
2023/04/02 13:10:54;;;;;;;;;;;;;;;-128.00;-1.00;-1.00;105076;1266;1013471;-51
2023/04/02 13:13:28;;;;;;;0.70;0.70;;;;;;;-128.00;-1.00;-1.00;101377;1267;1010156;-53
2023/04/02 13:16:04;;;;;;;;;;;;;;;-128.00;-1.00;-1.00;101616;1267;1012486;-51
2023/04/02 13:18:33;;;;;;;1.30;0.80;;;;;;;-128.00;-1.00;-1.00;102520;1266;1012813;-53
2023/04/02 13:21:05;;;;;;;1.10;0.80;;;;;;;-128.00;-1.00;-1.00;101766;1267;1013262;-50
2023/04/02 13:23:35;;;;;;;0.70;0.70;;;;;;;-128.00;-1.00;-1.00;101382;1269;1012957;-50
2023/04/02 13:26:22;;;;;;;2.10;1.00;;;;;;;-128.00;-1.00;-1.00;101276;1270;1010022;-50
2023/04/02 13:29:00;;;;;;;2.00;0.70;;;;;;;-128.00;-1.00;-1.00;101851;1267;1011231;-52
2023/04/02 13:31:30;;;;;;;1.00;0.80;;;;;;;-128.00;-1.00;-1.00;102203;1270;1013259;-53
2023/04/02 13:33:59;;;;;;;1.20;1.10;;;;;;;-128.00;-1.00;-1.00;101929;1269;1013428;-52
2023/04/02 13:36:28;;;;;;;1.00;0.90;;;;;;;-128.00;-1.00;-1.00;102509;1267;1002906;-49
2023/04/02 13:38:56;;;;;;;1.40;1.00;;;;;;;-128.00;-1.00;-1.00;102547;1269;1010100;-46
2023/04/02 13:41:33;;;;;;;1.40;1.30;;;;;;;-128.00;-1.00;-1.00;102260;1266;1002600;-47
2023/04/02 13:44:02;;;;;;;1.20;1.10;;;;;;;-128.00;-1.00;-1.00;102529;1266;1013105;-52
2023/04/02 13:46:31;;;;;;;2.60;1.50;;;;;;;-128.00;-1.00;-1.00;105547;1266;1012879;-50
2023/04/02 13:49:02;;;;;;;3.00;2.90;;;;;;;-128.00;-1.00;-1.00;102502;1267;1013031;-52
2023/04/02 13:51:35;;;;;;;2.80;2.70;;;;;;;-128.00;-1.00;-1.00;102424;1269;1002361;-52
2023/04/02 13:54:17;;;;;;;4.00;3.80;;;;;;;-128.00;-1.00;-1.00;102680;1267;1010936;-48
2023/04/02 13:56:46;;;;;;;4.10;3.70;;;;;;;-128.00;-1.00;-1.00;102342;1269;1013090;-50
2023/04/02 13:59:14;;;;;;;4.10;3.10;;;;;;;-128.00;-1.00;-1.00;102820;1266;1003161;-51
2023/04/02 14:01:44;;;;;;;8.10;2.90;;;;;;;-128.00;-1.00;-1.00;102259;1269;1013244;-48
2023/04/02 14:04:17;;;;;;;2.80;2.60;;;;;;;-128.00;-1.00;-1.00;102322;1269;1010412;-51
2023/04/02 14:07:05;;;;;;;3.10;2.80;;;;;;;-128.00;-1.00;-1.00;102924;1254;1011212;-49
2023/04/02 14:10:00;;;;;;;4.40;4.10;;;;;;;-128.00;-1.00;-1.00;104300;1257;1013314;-47
2023/04/02 14:12:34;;;;;;;3.60;3.30;;;;;;;-128.00;-1.00;-1.00;103415;1254;1012777;-50
2023/04/02 14:15:09;;;;;;;3.30;3.10;;;;;;;-128.00;-1.00;-1.00;102887;1257;1013377;-50
2023/04/02 14:17:46;;;;;;;3.40;3.10;;;;;;;-128.00;-1.00;-1.00;104087;1254;1010819;-50
2023/04/02 14:20:30;;;;;;;4.50;3.60;;;;;;;-128.00;-1.00;-1.00;103684;1253;1011276;-51
2023/04/02 14:23:09;;;;;;;4.90;4.30;;;;;;;-128.00;-1.00;-1.00;104007;1254;1012172;-51
2023/04/02 14:25:44;;;;;;;4.20;3.90;;;;;;;-128.00;-1.00;-1.00;102338;1259;1012596;-52
2023/04/02 14:28:22;;;;;;;5.60;3.70;;;;;;;-128.00;-1.00;-1.00;103893;1254;1012517;-52
2023/04/02 14:30:58;;;;;;;2.90;2.80;;;;;;;-128.00;-1.00;-1.00;102854;1257;1009781;-52
2023/04/02 14:33:38;;;;;;;4.20;4.00;;;;;;;-128.00;-1.00;-1.00;103316;1254;1011079;-48
2023/04/02 14:36:46;;;;;;;4.60;4.20;;;;;;;-128.00;-1.00;-1.00;103119;1257;1012949;-52